createdAt,value
2019-05-22T00:00:24.870Z,55.80
2019-05-22T00:01:24.822Z,66.40
2019-05-22T00:02:24.865Z,60.20
2019-05-22T00:03:24.846Z,58.00
2019-05-22T00:04:24.847Z,60.70
2019-05-22T00:05:24.840Z,60.70
2019-05-22T00:06:24.780Z,64.10
2019-05-22T00:07:24.744Z,59.90
2019-05-22T00:08:24.771Z,60.20
2019-05-22T00:09:24.761Z,61.90
2019-05-22T00:10:24.774Z,61.30
2019-05-22T00:11:24.709Z,59.60
2019-05-22T00:12:24.760Z,57.80
2019-05-22T00:13:24.671Z,67.00
2019-05-22T00:14:24.700Z,71.10
2019-05-22T00:15:24.723Z,56.10
2019-05-22T00:16:24.720Z,62.40
2019-05-22T00:17:24.626Z,57.80
2019-05-22T00:18:24.637Z,70.00
2019-05-22T00:19:24.746Z,67.50
2019-05-22T00:20:24.601Z,68.40
2019-05-22T00:21:24.628Z,64.10
2019-05-22T00:22:24.637Z,58.70
2019-05-22T00:23:24.571Z,50.00
2019-05-22T00:24:24.570Z,51.10
2019-05-22T00:25:24.605Z,48.10
2019-05-22T00:26:24.622Z,53.00
2019-05-22T00:27:24.514Z,51.90
2019-05-22T00:28:24.533Z,46.40
2019-05-22T00:29:24.537Z,53.80
2019-05-22T00:30:24.575Z,42.10
2019-05-22T00:31:24.527Z,51.50
2019-05-22T00:32:24.482Z,49.50
2019-05-22T00:33:24.475Z,43.00
2019-05-22T00:34:24.460Z,44.60
2019-05-22T00:35:24.616Z,39.60
2019-05-22T00:36:24.436Z,44.20
2019-05-22T00:37:24.464Z,49.80
2019-05-22T00:38:24.432Z,47.50
2019-05-22T00:39:24.416Z,43.40
2019-05-22T00:40:24.375Z,39.30
2019-05-22T00:41:24.380Z,39.60
2019-05-22T00:42:24.403Z,41.40
2019-05-22T00:43:24.352Z,46.20
2019-05-22T00:44:24.340Z,41.70
2019-05-22T00:45:24.350Z,42.80
2019-05-22T00:46:24.318Z,39.70
2019-05-22T00:47:24.327Z,40.90
2019-05-22T00:48:24.365Z,40.90
2019-05-22T00:49:24.328Z,34.60
2019-05-22T00:50:24.926Z,36.10
2019-05-22T00:51:24.290Z,37.90
2019-05-22T00:52:24.279Z,32.90
2019-05-22T00:53:24.263Z,36.90
2019-05-22T00:54:24.245Z,36.20
2019-05-22T00:55:24.228Z,37.80
2019-05-22T00:56:24.213Z,37.20
2019-05-22T00:57:24.207Z,35.20
2019-05-22T00:58:24.218Z,37.50
2019-05-22T00:59:24.210Z,37.60
2019-05-22T01:00:24.166Z,36.80
2019-05-22T01:01:24.160Z,34.10
2019-05-22T01:02:24.166Z,32.20
2019-05-22T01:03:24.184Z,28.70
2019-05-22T01:04:24.237Z,31.50
2019-05-22T01:05:24.181Z,30.20
2019-05-22T01:06:24.105Z,37.70
2019-05-22T01:07:24.091Z,31.50
2019-05-22T01:08:24.098Z,28.20
2019-05-22T01:09:24.135Z,27.80
2019-05-22T01:10:24.073Z,30.80
2019-05-22T01:11:24.096Z,31.10
2019-05-22T01:12:24.092Z,31.40
2019-05-22T01:13:24.039Z,28.40
2019-05-22T01:14:24.099Z,26.10
2019-05-22T01:15:24.041Z,26.40
2019-05-22T01:16:24.025Z,28.00
2019-05-22T01:17:24.012Z,25.20
2019-05-22T01:18:24.048Z,26.00
2019-05-22T01:19:24.024Z,28.20
2019-05-22T01:20:23.986Z,26.10
2019-05-22T01:21:24.032Z,30.90
2019-05-22T01:22:23.959Z,28.30
2019-05-22T01:23:23.904Z,25.10
2019-05-22T01:24:23.943Z,29.70
2019-05-22T01:25:23.951Z,27.00
2019-05-22T01:26:23.909Z,26.20
2019-05-22T01:27:23.894Z,27.20
2019-05-22T01:28:23.942Z,26.30
2019-05-22T01:29:24.436Z,24.80
2019-05-22T01:30:23.934Z,26.00
2019-05-22T01:31:23.853Z,27.60
2019-05-22T01:32:23.854Z,27.20
2019-05-22T01:33:23.871Z,25.80
2019-05-22T01:34:23.825Z,27.00
2019-05-22T01:35:23.854Z,28.10
2019-05-22T01:36:23.833Z,27.80
2019-05-22T01:37:23.803Z,26.80
2019-05-22T01:38:23.798Z,25.30
2019-05-22T01:39:23.756Z,28.00
2019-05-22T01:40:23.864Z,29.50
2019-05-22T01:41:23.752Z,27.80
2019-05-22T01:42:23.773Z,28.90
2019-05-22T01:43:23.728Z,24.20
2019-05-22T01:44:23.711Z,22.60
2019-05-22T01:45:23.698Z,22.60
2019-05-22T01:46:23.783Z,21.80
2019-05-22T01:47:23.659Z,24.20
2019-05-22T01:48:23.665Z,20.90
2019-05-22T01:49:24.438Z,22.80
2019-05-22T01:50:23.690Z,22.10
2019-05-22T01:51:23.655Z,24.50
2019-05-22T01:52:23.689Z,24.30
2019-05-22T01:53:23.600Z,27.20
2019-05-22T01:54:24.558Z,24.20
2019-05-22T01:55:23.578Z,27.80
2019-05-22T01:56:23.682Z,24.70
2019-05-22T01:57:23.585Z,21.50
2019-05-22T01:58:23.587Z,21.10
2019-05-22T01:59:27.122Z,23.40
2019-05-22T02:00:24.441Z,22.10
2019-05-22T02:01:23.582Z,22.00
2019-05-22T02:02:23.515Z,19.60
2019-05-22T02:03:24.442Z,17.80
2019-05-22T02:04:23.532Z,17.70
2019-05-22T02:05:23.492Z,15.00
2019-05-22T02:06:23.463Z,15.40
2019-05-22T02:07:23.456Z,15.30
2019-05-22T02:08:23.561Z,16.70
2019-05-22T02:09:23.563Z,15.00
2019-05-22T02:10:23.506Z,15.10
2019-05-22T02:11:23.443Z,14.20
2019-05-22T02:12:23.419Z,14.40
2019-05-22T02:13:23.387Z,14.70
2019-05-22T02:14:23.388Z,14.80
2019-05-22T02:15:23.641Z,14.50
2019-05-22T02:16:23.374Z,16.70
2019-05-22T02:17:23.339Z,14.10
2019-05-22T02:18:23.325Z,14.40
2019-05-22T02:19:23.338Z,14.30
2019-05-22T02:20:23.339Z,15.80
2019-05-22T02:21:23.314Z,14.40
2019-05-22T02:22:23.288Z,13.90
2019-05-22T02:23:23.280Z,15.10
2019-05-22T02:24:23.285Z,14.70
2019-05-22T02:25:23.273Z,14.20
2019-05-22T02:26:23.261Z,15.00
2019-05-22T02:27:23.237Z,15.00
2019-05-22T02:28:23.224Z,14.80
2019-05-22T02:29:23.209Z,15.50
2019-05-22T02:30:23.261Z,15.60
2019-05-22T02:31:23.224Z,15.90
2019-05-22T02:32:23.206Z,16.00
2019-05-22T02:33:23.181Z,14.90
2019-05-22T02:34:23.145Z,16.10
2019-05-22T02:35:23.135Z,16.10
2019-05-22T02:36:23.177Z,16.50
2019-05-22T02:37:32.582Z,17.30
2019-05-22T02:38:33.094Z,19.50
2019-05-22T02:39:23.086Z,16.80
2019-05-22T02:40:32.637Z,18.20
2019-05-22T02:41:31.663Z,19.50
2019-05-22T02:42:32.692Z,18.70
2019-05-22T02:43:32.234Z,18.50
2019-05-22T02:44:32.246Z,18.80
2019-05-22T02:45:23.060Z,19.30
2019-05-22T02:46:23.094Z,18.80
2019-05-22T02:47:23.048Z,24.30
2019-05-22T02:48:23.015Z,22.20
2019-05-22T02:49:23.003Z,25.00
2019-05-22T02:50:23.031Z,21.60
2019-05-22T02:51:22.991Z,22.30
2019-05-22T02:52:22.969Z,22.70
2019-05-22T02:53:22.998Z,27.50
2019-05-22T02:54:22.943Z,19.20
2019-05-22T02:55:22.929Z,18.90
2019-05-22T02:56:22.954Z,19.10
2019-05-22T02:57:22.922Z,20.70
2019-05-22T02:58:23.004Z,24.10
2019-05-22T02:59:22.882Z,19.50
2019-05-22T03:00:22.915Z,19.60
2019-05-22T03:01:22.869Z,19.80
2019-05-22T03:02:22.867Z,19.00
2019-05-22T03:03:22.859Z,17.70
2019-05-22T03:04:22.885Z,21.50
2019-05-22T03:05:22.871Z,20.10
2019-05-22T03:06:22.838Z,19.20
2019-05-22T03:07:22.804Z,19.60
2019-05-22T03:08:22.787Z,19.30
2019-05-22T03:09:22.799Z,20.00
2019-05-22T03:10:22.845Z,19.80
2019-05-22T03:11:22.762Z,20.70
2019-05-22T03:12:22.776Z,19.20
2019-05-22T03:13:22.809Z,19.40
2019-05-22T03:14:22.772Z,20.70
2019-05-22T03:15:22.814Z,19.10
2019-05-22T03:16:22.702Z,18.60
2019-05-22T03:17:22.710Z,18.60
2019-05-22T03:18:22.734Z,20.50
2019-05-22T03:19:22.676Z,20.10
2019-05-22T03:20:22.686Z,18.30
2019-05-22T03:21:22.702Z,18.90
2019-05-22T03:22:22.650Z,19.10
2019-05-22T03:23:22.628Z,19.10
2019-05-22T03:24:22.611Z,18.70
2019-05-22T03:25:22.682Z,19.30
2019-05-22T03:26:22.658Z,18.60
2019-05-22T03:27:22.616Z,19.20
2019-05-22T03:28:22.695Z,19.00
2019-05-22T03:29:22.594Z,20.00
2019-05-22T03:30:22.635Z,19.70
2019-05-22T03:31:22.552Z,23.70
2019-05-22T03:32:22.561Z,22.80
2019-05-22T03:33:22.538Z,21.70
2019-05-22T03:34:22.506Z,24.80
2019-05-22T03:35:22.561Z,23.00
2019-05-22T03:36:22.528Z,22.20
2019-05-22T03:37:22.496Z,22.60
2019-05-22T03:38:22.473Z,24.40
2019-05-22T03:39:22.466Z,20.00
2019-05-22T03:40:22.464Z,21.20
2019-05-22T03:41:22.428Z,20.80
2019-05-22T03:42:22.481Z,20.60
2019-05-22T03:43:22.437Z,23.10
2019-05-22T03:44:22.411Z,27.00
2019-05-22T03:45:22.466Z,30.20
2019-05-22T03:46:22.499Z,23.30
2019-05-22T03:47:22.385Z,28.50
2019-05-22T03:48:22.402Z,27.60
2019-05-22T03:49:31.054Z,26.20
2019-05-22T03:50:23.329Z,28.30
2019-05-22T03:51:22.470Z,24.20
2019-05-22T03:52:22.320Z,25.20
2019-05-22T03:53:22.348Z,28.00
2019-05-22T03:54:22.330Z,26.30
2019-05-22T03:55:22.295Z,29.70
2019-05-22T03:56:22.318Z,25.80
2019-05-22T03:57:22.299Z,23.40
2019-05-22T03:58:22.298Z,24.80
2019-05-22T03:59:22.299Z,21.00
2019-05-22T04:00:22.259Z,24.00
2019-05-22T04:01:22.243Z,23.30
2019-05-22T04:02:22.241Z,26.70
2019-05-22T04:03:22.230Z,23.90
2019-05-22T04:04:22.377Z,25.00
2019-05-22T04:05:22.248Z,26.30
2019-05-22T04:06:22.704Z,25.10
2019-05-22T04:07:22.194Z,27.20
2019-05-22T04:08:22.218Z,24.80
2019-05-22T04:09:22.458Z,27.60
2019-05-22T04:10:22.137Z,26.10
2019-05-22T04:11:22.135Z,27.40
2019-05-22T04:12:22.129Z,28.70
2019-05-22T04:13:22.148Z,30.30
2019-05-22T04:14:22.120Z,30.50
2019-05-22T04:15:22.790Z,28.50
2019-05-22T04:16:22.078Z,27.50
2019-05-22T04:17:22.158Z,28.80
2019-05-22T04:18:22.991Z,28.70
2019-05-22T04:19:22.101Z,26.20
2019-05-22T04:20:22.063Z,27.60
2019-05-22T04:21:22.059Z,27.50
2019-05-22T04:22:22.061Z,27.60
2019-05-22T04:23:22.015Z,22.50
2019-05-22T04:24:22.014Z,22.30
2019-05-22T04:25:21.988Z,22.00
2019-05-22T04:26:22.132Z,20.70
2019-05-22T04:27:22.172Z,22.40
2019-05-22T04:28:22.113Z,19.70
2019-05-22T04:29:22.060Z,20.70
2019-05-22T04:30:21.926Z,20.60
2019-05-22T04:31:21.971Z,21.00
2019-05-22T04:32:22.036Z,24.50
2019-05-22T04:33:22.048Z,23.10
2019-05-22T04:34:21.887Z,29.30
2019-05-22T04:35:21.992Z,25.30
2019-05-22T04:36:21.910Z,22.20
2019-05-22T04:37:21.966Z,29.60
2019-05-22T04:38:21.988Z,27.20
2019-05-22T04:39:21.862Z,29.70
2019-05-22T04:40:21.873Z,23.10
2019-05-22T04:41:21.837Z,24.70
2019-05-22T04:42:21.810Z,25.80
2019-05-22T04:43:21.778Z,21.90
2019-05-22T04:44:21.793Z,22.00
2019-05-22T04:45:21.977Z,20.40
2019-05-22T04:46:22.303Z,22.00
2019-05-22T04:47:21.780Z,21.80
2019-05-22T04:48:21.755Z,20.70
2019-05-22T04:49:21.735Z,19.50
2019-05-22T04:50:22.212Z,22.60
2019-05-22T04:51:21.703Z,23.50
2019-05-22T04:52:21.770Z,18.60
2019-05-22T04:53:21.679Z,20.80
2019-05-22T04:54:21.669Z,20.40
2019-05-22T04:55:21.709Z,17.80
2019-05-22T04:56:21.619Z,19.10
2019-05-22T04:57:21.655Z,18.60
2019-05-22T04:58:21.669Z,17.30
2019-05-22T04:59:21.632Z,14.50
2019-05-22T05:00:21.656Z,17.10
2019-05-22T05:01:21.668Z,19.10
2019-05-22T05:02:21.596Z,20.10
2019-05-22T05:03:21.642Z,14.80
2019-05-22T05:04:21.602Z,18.20
2019-05-22T05:05:21.613Z,14.50
2019-05-22T05:06:22.215Z,12.60
2019-05-22T05:07:22.219Z,15.70
2019-05-22T05:08:21.531Z,14.40
2019-05-22T05:09:21.521Z,12.10
2019-05-22T05:10:21.516Z,12.40
2019-05-22T05:11:21.492Z,11.30
2019-05-22T05:12:22.726Z,13.10
2019-05-22T05:13:21.540Z,15.50
2019-05-22T05:14:21.484Z,13.00
2019-05-22T05:15:21.453Z,14.50
2019-05-22T05:16:22.729Z,14.20
2019-05-22T05:18:42.607Z,12.10
2019-05-22T05:19:42.331Z,13.10
2019-05-22T05:20:42.324Z,12.60
2019-05-22T05:21:43.013Z,13.60
2019-05-22T05:22:44.634Z,10.50
2019-05-22T05:23:42.374Z,9.90
2019-05-22T05:24:43.137Z,13.00
2019-05-22T05:25:43.254Z,9.80
2019-05-22T05:26:42.276Z,10.40
2019-05-22T05:27:42.169Z,10.50
2019-05-22T05:28:43.254Z,10.50
2019-05-22T05:29:45.328Z,11.50
2019-05-22T05:30:42.261Z,12.10
2019-05-22T05:31:42.168Z,11.30
2019-05-22T05:32:42.213Z,10.50
2019-05-22T05:33:42.142Z,10.40
2019-05-22T05:34:45.276Z,9.80
2019-05-22T05:35:42.109Z,10.90
2019-05-22T05:36:42.249Z,12.00
2019-05-22T05:37:43.753Z,10.10
2019-05-22T05:38:42.069Z,10.10
2019-05-22T05:39:42.081Z,11.10
2019-05-22T05:40:42.033Z,9.80
2019-05-22T05:41:42.046Z,9.90
2019-05-22T05:42:42.037Z,10.10
2019-05-22T05:43:42.009Z,10.50
2019-05-22T05:44:42.025Z,12.60
2019-05-22T05:45:42.041Z,13.00
2019-05-22T05:46:41.968Z,11.50
2019-05-22T05:47:41.974Z,12.40
2019-05-22T05:48:41.934Z,11.70
2019-05-22T05:49:41.927Z,12.10
2019-05-22T05:50:41.947Z,13.40
2019-05-22T05:51:41.913Z,13.20
2019-05-22T05:52:41.883Z,14.80
2019-05-22T05:53:41.870Z,15.00
2019-05-22T05:54:41.948Z,15.80
2019-05-22T05:55:42.451Z,13.70
2019-05-22T05:56:41.917Z,14.00
2019-05-22T05:57:41.923Z,15.30
2019-05-22T05:58:41.847Z,15.30
2019-05-22T05:59:41.900Z,15.40
2019-05-22T06:00:44.585Z,18.70
2019-05-22T06:01:41.864Z,15.70
2019-05-22T06:02:55.700Z,16.00
2019-05-22T06:03:42.852Z,16.10
2019-05-22T06:04:41.842Z,16.90
2019-05-22T06:05:41.898Z,19.10
2019-05-22T06:06:41.835Z,19.30
2019-05-22T06:07:42.023Z,15.10
2019-05-22T06:08:41.785Z,20.40
2019-05-22T06:09:41.783Z,18.40
2019-05-22T06:10:41.770Z,19.60
2019-05-22T06:11:41.726Z,17.60
2019-05-22T06:12:41.727Z,14.60
2019-05-22T06:13:41.697Z,15.00
2019-05-22T06:14:41.670Z,15.90
2019-05-22T06:15:46.977Z,13.60
2019-05-22T06:16:42.637Z,14.70
2019-05-22T06:17:41.745Z,14.70
2019-05-22T06:18:41.616Z,16.10
2019-05-22T06:19:41.635Z,13.40
2019-05-22T06:20:41.600Z,13.40
2019-05-22T06:21:41.584Z,12.90
2019-05-22T06:22:42.366Z,12.40
2019-05-22T06:23:41.762Z,13.00
2019-05-22T06:24:41.595Z,14.00
2019-05-22T06:25:41.531Z,14.30
2019-05-22T06:26:41.550Z,12.20
2019-05-22T06:27:41.552Z,12.60
2019-05-22T06:28:41.608Z,13.00
2019-05-22T06:29:41.541Z,12.70
2019-05-22T06:30:41.497Z,11.40
2019-05-22T06:31:41.505Z,13.50
2019-05-22T06:32:41.690Z,15.50
2019-05-22T06:33:41.509Z,12.70
2019-05-22T06:34:41.505Z,11.80
2019-05-22T06:35:41.465Z,11.90
2019-05-22T06:36:41.632Z,13.60
2019-05-22T06:37:41.469Z,12.90
2019-05-22T06:38:41.531Z,13.80
2019-05-22T06:39:41.480Z,12.20
2019-05-22T06:40:41.423Z,12.30
2019-05-22T06:41:41.415Z,12.40
2019-05-22T06:42:41.445Z,12.30
2019-05-22T06:43:41.412Z,12.90
2019-05-22T06:44:41.457Z,14.10
2019-05-22T06:45:41.384Z,12.30
2019-05-22T06:46:41.426Z,12.90
2019-05-22T06:47:41.320Z,12.00
2019-05-22T06:48:41.339Z,12.00
2019-05-22T06:49:41.304Z,13.10
2019-05-22T06:50:41.315Z,13.70
2019-05-22T06:51:41.292Z,12.30
2019-05-22T06:52:41.262Z,11.70
2019-05-22T06:53:41.261Z,11.80
2019-05-22T06:54:41.260Z,10.50
2019-05-22T06:55:41.280Z,10.90
2019-05-22T06:56:41.264Z,12.00
2019-05-22T06:57:41.228Z,13.30
2019-05-22T06:58:41.181Z,19.10
2019-05-22T06:59:41.215Z,13.50
2019-05-22T07:00:41.180Z,16.10
2019-05-22T07:01:41.272Z,13.80
2019-05-22T07:02:41.178Z,14.30
2019-05-22T07:03:41.167Z,12.70
2019-05-22T07:04:41.132Z,13.20
2019-05-22T07:05:41.135Z,11.40
2019-05-22T07:06:41.144Z,12.50
2019-05-22T07:07:41.113Z,11.30
2019-05-22T07:08:41.775Z,9.70
2019-05-22T07:09:41.099Z,11.50
2019-05-22T07:10:41.098Z,10.20
2019-05-22T07:11:41.053Z,10.60
2019-05-22T07:12:41.110Z,8.30
2019-05-22T07:13:41.064Z,9.70
2019-05-22T07:14:41.046Z,10.00
2019-05-22T07:15:41.074Z,9.50
2019-05-22T07:16:41.037Z,10.10
2019-05-22T07:17:41.026Z,11.20
2019-05-22T07:18:41.024Z,9.60
2019-05-22T07:19:41.006Z,10.00
2019-05-22T07:20:40.998Z,9.90
2019-05-22T07:21:40.936Z,9.50
2019-05-22T07:22:41.007Z,9.70
2019-05-22T07:23:40.929Z,9.80
2019-05-22T07:24:40.921Z,11.30
2019-05-22T07:25:40.974Z,10.80
2019-05-22T07:26:40.901Z,9.90
2019-05-22T07:27:40.908Z,10.20
2019-05-22T07:28:40.921Z,9.10
2019-05-22T07:29:41.958Z,10.90
2019-05-22T07:30:40.894Z,9.50
2019-05-22T07:31:40.860Z,10.20
2019-05-22T07:32:40.871Z,9.40
2019-05-22T07:33:40.841Z,11.00
2019-05-22T07:34:40.838Z,12.70
2019-05-22T07:36:04.818Z,11.30
2019-05-22T07:36:41.837Z,10.90
2019-05-22T07:37:40.774Z,8.90
2019-05-22T07:38:40.756Z,10.10
2019-05-22T07:39:40.757Z,9.00
2019-05-22T07:40:40.765Z,8.80
2019-05-22T07:41:40.774Z,8.80
2019-05-22T07:42:40.785Z,9.60
2019-05-22T07:43:41.918Z,9.20
2019-05-22T07:44:40.719Z,9.60
2019-05-22T07:45:40.868Z,10.30
2019-05-22T07:46:40.683Z,8.70
2019-05-22T07:47:40.752Z,9.00
2019-05-22T07:48:40.673Z,9.00
2019-05-22T07:49:40.636Z,9.50
2019-05-22T07:50:40.673Z,10.20
2019-05-22T07:51:52.003Z,9.00
2019-05-22T07:52:41.654Z,9.70
2019-05-22T07:53:40.638Z,12.10
2019-05-22T07:54:40.598Z,9.70
2019-05-22T07:55:40.656Z,12.30
2019-05-22T07:56:40.562Z,11.00
2019-05-22T07:57:40.675Z,12.00
2019-05-22T07:58:40.572Z,9.20
2019-05-22T07:59:40.566Z,9.60
2019-05-22T08:00:40.601Z,9.80
2019-05-22T08:01:40.625Z,9.50
2019-05-22T08:02:40.524Z,9.10
2019-05-22T08:03:41.287Z,8.70
2019-05-22T08:04:40.583Z,9.60
2019-05-22T08:05:41.359Z,9.00
2019-05-22T08:06:41.299Z,8.70
2019-05-22T08:07:40.527Z,9.90
2019-05-22T08:08:40.567Z,9.20
2019-05-22T08:09:40.450Z,8.60
2019-05-22T08:10:40.451Z,8.80
2019-05-22T08:11:40.408Z,9.10
2019-05-22T08:12:40.464Z,9.80
2019-05-22T08:13:40.478Z,8.30
2019-05-22T08:14:40.446Z,8.50
2019-05-22T08:15:40.373Z,7.90
2019-05-22T08:16:40.349Z,7.80
2019-05-22T08:17:40.340Z,8.40
2019-05-22T08:18:40.371Z,8.80
2019-05-22T08:19:40.593Z,8.10
2019-05-22T08:20:40.368Z,9.30
2019-05-22T08:21:40.342Z,9.60
2019-05-22T08:22:40.354Z,10.20
2019-05-22T08:23:40.363Z,8.60
2019-05-22T08:24:40.284Z,8.80
2019-05-22T08:25:40.802Z,9.60
2019-05-22T08:26:53.372Z,10.50
2019-05-22T08:27:41.266Z,9.10
2019-05-22T08:28:40.224Z,9.20
2019-05-22T08:29:40.238Z,10.60
2019-05-22T08:30:40.239Z,9.80
2019-05-22T08:31:40.368Z,8.70
2019-05-22T08:32:40.220Z,12.10
2019-05-22T08:33:40.208Z,8.90
2019-05-22T08:34:40.336Z,8.50
2019-05-22T08:35:40.847Z,9.40
2019-05-22T08:36:40.187Z,8.00
2019-05-22T08:37:40.805Z,8.70
2019-05-22T08:38:40.256Z,8.60
2019-05-22T08:39:40.139Z,8.90
2019-05-22T08:40:40.139Z,9.00
2019-05-22T08:41:40.113Z,9.70
2019-05-22T08:42:40.143Z,9.50
2019-05-22T08:44:03.290Z,10.60
2019-05-22T08:44:41.057Z,11.00
2019-05-22T08:45:40.037Z,8.50
2019-05-22T08:46:50.398Z,10.00
2019-05-22T08:47:40.011Z,9.00
2019-05-22T08:48:46.956Z,8.50
2019-05-22T08:49:40.991Z,9.20
2019-05-22T08:50:39.991Z,10.20
2019-05-22T08:51:39.973Z,11.40
2019-05-22T08:52:40.005Z,10.30
2019-05-22T08:53:47.253Z,11.70
2019-05-22T08:54:40.968Z,11.30
2019-05-22T08:55:39.999Z,11.20
2019-05-22T08:56:39.953Z,11.50
2019-05-22T08:57:39.956Z,11.30
2019-05-22T08:58:39.915Z,12.00
2019-05-22T08:59:39.897Z,10.90
2019-05-22T09:00:39.895Z,9.50
2019-05-22T09:01:39.889Z,11.90
2019-05-22T09:02:39.931Z,9.50
2019-05-22T09:03:39.925Z,12.60
2019-05-22T09:04:39.851Z,13.40
2019-05-22T09:05:39.855Z,11.60
2019-05-22T09:06:39.909Z,11.30
2019-05-22T09:07:39.794Z,7.90
2019-05-22T09:08:39.830Z,9.10
2019-05-22T09:09:39.805Z,8.50
2019-05-22T09:10:39.786Z,11.70
2019-05-22T09:11:39.787Z,20.60
2019-05-22T09:12:39.763Z,20.40
2019-05-22T09:13:39.738Z,12.00
2019-05-22T09:14:39.735Z,19.90
2019-05-22T09:15:39.710Z,19.20
2019-05-22T09:16:39.696Z,15.90
2019-05-22T09:17:39.693Z,13.80
2019-05-22T09:18:39.708Z,12.20
2019-05-22T09:19:39.699Z,10.80
2019-05-22T09:20:48.780Z,10.80
2019-05-22T09:21:40.796Z,9.70
2019-05-22T09:22:41.330Z,9.70
2019-05-22T09:23:39.652Z,10.50
2019-05-22T09:24:39.657Z,12.20
2019-05-22T09:25:39.603Z,11.50
2019-05-22T09:26:39.652Z,10.90
2019-05-22T09:27:39.585Z,13.40
2019-05-22T09:28:39.609Z,9.80
2019-05-22T09:29:39.565Z,10.00
2019-05-22T09:30:39.587Z,10.70
2019-05-22T09:31:39.701Z,10.90
2019-05-22T09:32:39.521Z,10.90
2019-05-22T09:33:39.575Z,10.10
2019-05-22T09:34:39.558Z,11.90
2019-05-22T09:35:39.490Z,9.80
2019-05-22T09:36:39.511Z,11.30
2019-05-22T09:37:39.477Z,10.00
2019-05-22T09:38:39.462Z,11.30
2019-05-22T09:39:39.450Z,10.30
2019-05-22T09:40:39.471Z,10.20
2019-05-22T09:41:39.444Z,9.70
2019-05-22T09:42:39.446Z,11.00
2019-05-22T09:43:39.443Z,10.70
2019-05-22T09:44:39.409Z,9.80
2019-05-22T09:45:39.392Z,10.70
2019-05-22T09:46:39.388Z,9.80
2019-05-22T09:47:39.374Z,9.70
2019-05-22T09:48:39.374Z,9.80
2019-05-22T09:49:39.345Z,11.60
2019-05-22T09:50:39.343Z,11.10
2019-05-22T09:51:39.375Z,13.10
2019-05-22T09:52:39.380Z,8.90
2019-05-22T09:53:39.329Z,9.10
2019-05-22T09:54:39.438Z,11.70
2019-05-22T09:55:39.288Z,7.60
2019-05-22T09:56:39.308Z,8.90
2019-05-22T09:57:39.279Z,8.60
2019-05-22T09:58:39.255Z,11.70
2019-05-22T09:59:39.257Z,8.80
2019-05-22T10:00:39.255Z,10.50
2019-05-22T10:01:39.229Z,9.10
2019-05-22T10:02:39.234Z,7.10
2019-05-22T10:03:39.190Z,8.60
2019-05-22T10:04:39.197Z,9.00
2019-05-22T10:05:39.232Z,11.20
2019-05-22T10:06:39.188Z,8.80
2019-05-22T10:07:56.990Z,9.20
2019-05-22T10:08:40.224Z,10.20
2019-05-22T10:09:39.135Z,7.80
2019-05-22T10:10:39.145Z,7.90
2019-05-22T10:11:39.148Z,6.70
2019-05-22T10:12:39.100Z,8.10
2019-05-22T10:13:39.418Z,9.20
2019-05-22T10:14:39.132Z,8.70
2019-05-22T10:15:39.070Z,14.70
2019-05-22T10:16:39.151Z,9.80
2019-05-22T10:17:39.063Z,15.00
2019-05-22T10:18:39.059Z,13.50
2019-05-22T10:19:39.024Z,8.60
2019-05-22T10:20:39.086Z,11.60
2019-05-22T10:21:39.003Z,9.40
2019-05-22T10:22:38.987Z,7.60
2019-05-22T10:23:38.989Z,7.20
2019-05-22T10:24:38.977Z,6.80
2019-05-22T10:25:38.956Z,7.40
2019-05-22T10:26:38.942Z,6.80
2019-05-22T10:27:38.941Z,6.30
2019-05-22T10:28:38.943Z,6.90
2019-05-22T10:29:38.923Z,7.50
2019-05-22T10:30:38.935Z,8.00
2019-05-22T10:31:38.897Z,6.50
2019-05-22T10:32:38.881Z,7.20
2019-05-22T10:33:38.882Z,8.10
2019-05-22T10:34:38.857Z,7.00
2019-05-22T10:35:38.852Z,7.70
2019-05-22T10:36:38.881Z,7.40
2019-05-22T10:37:38.848Z,10.70
2019-05-22T10:38:38.810Z,10.20
2019-05-22T10:39:38.820Z,10.50
2019-05-22T10:40:38.798Z,12.70
2019-05-22T10:41:38.778Z,9.00
2019-05-22T10:42:38.782Z,8.50
2019-05-22T10:43:38.756Z,7.50
2019-05-22T10:44:38.753Z,8.10
2019-05-22T10:45:38.748Z,9.00
2019-05-22T10:46:38.765Z,10.30
2019-05-22T10:47:38.744Z,9.70
2019-05-22T10:48:40.420Z,8.70
2019-05-22T10:49:38.685Z,8.10
2019-05-22T10:50:38.675Z,7.50
2019-05-22T10:51:38.680Z,8.30
2019-05-22T10:52:38.676Z,7.60
2019-05-22T10:53:38.650Z,6.90
2019-05-22T10:54:38.663Z,9.30
2019-05-22T10:55:38.659Z,11.40
2019-05-22T10:56:38.634Z,14.90
2019-05-22T10:57:41.010Z,12.90
2019-05-22T10:58:38.623Z,12.50
2019-05-22T10:59:38.595Z,12.10
2019-05-22T11:00:38.578Z,9.60
2019-05-22T11:01:38.604Z,12.00
2019-05-22T11:02:38.604Z,11.90
2019-05-22T11:03:38.545Z,12.20
2019-05-22T11:04:38.562Z,10.90
2019-05-22T11:05:38.529Z,9.00
2019-05-22T11:06:38.513Z,10.00
2019-05-22T11:07:38.505Z,9.80
2019-05-22T11:08:38.512Z,14.50
2019-05-22T11:09:38.502Z,10.50
2019-05-22T11:10:38.480Z,10.30
2019-05-22T11:11:38.460Z,11.10
2019-05-22T11:12:38.656Z,10.10
2019-05-22T11:13:38.505Z,10.60
2019-05-22T11:14:38.469Z,13.40
2019-05-22T11:15:38.419Z,12.90
2019-05-22T11:16:38.398Z,16.60
2019-05-22T11:17:38.395Z,14.30
2019-05-22T11:18:38.416Z,11.70
2019-05-22T11:19:38.387Z,12.10
2019-05-22T11:20:38.365Z,11.10
2019-05-22T11:21:38.361Z,12.40
2019-05-22T11:22:38.338Z,14.50
2019-05-22T11:23:51.145Z,11.70
2019-05-22T11:24:39.350Z,12.20
2019-05-22T11:25:38.320Z,11.90
2019-05-22T11:26:38.301Z,11.80
2019-05-22T11:27:38.308Z,11.80
2019-05-22T11:28:38.285Z,12.00
2019-05-22T11:29:38.308Z,11.50
2019-05-22T11:30:38.268Z,12.40
2019-05-22T11:31:38.262Z,11.80
2019-05-22T11:32:38.272Z,12.20
2019-05-22T11:33:38.368Z,13.20
2019-05-22T11:34:38.224Z,14.60
2019-05-22T11:35:38.238Z,13.80
2019-05-22T11:36:38.248Z,13.10
2019-05-22T11:37:38.207Z,15.00
2019-05-22T11:38:38.204Z,14.60
2019-05-22T11:39:40.323Z,15.00
2019-05-22T11:40:39.180Z,18.30
2019-05-22T11:41:38.157Z,20.80
2019-05-22T11:42:38.149Z,23.10
2019-05-22T11:43:38.189Z,20.20
2019-05-22T11:44:38.115Z,15.90
2019-05-22T11:45:38.152Z,17.50
2019-05-22T11:46:45.599Z,20.50
2019-05-22T11:47:38.052Z,19.50
2019-05-22T11:48:38.064Z,17.00
2019-05-22T11:49:38.053Z,16.50
2019-05-22T11:50:38.063Z,16.60
2019-05-22T11:51:38.048Z,17.90
2019-05-22T11:52:38.010Z,18.60
2019-05-22T11:53:38.082Z,17.90
2019-05-22T11:54:38.016Z,17.70
2019-05-22T11:55:45.298Z,18.70
2019-05-22T11:56:39.002Z,20.10
2019-05-22T11:57:37.979Z,19.00
2019-05-22T11:58:37.955Z,17.20
2019-05-22T11:59:37.976Z,19.60
2019-05-22T12:00:37.940Z,20.60
2019-05-22T12:01:38.033Z,19.70
2019-05-22T12:02:37.948Z,16.90
2019-05-22T12:03:37.905Z,18.50
2019-05-22T12:04:47.789Z,16.60
2019-05-22T12:05:38.891Z,17.80
2019-05-22T12:06:37.877Z,16.90
2019-05-22T12:07:37.905Z,16.70
2019-05-22T12:08:37.866Z,16.60
2019-05-22T12:09:37.864Z,18.30
2019-05-22T12:10:37.830Z,17.70
2019-05-22T12:11:37.878Z,18.70
2019-05-22T12:12:37.821Z,17.90
2019-05-22T12:13:37.792Z,17.00
2019-05-22T12:14:37.785Z,19.70
2019-05-22T12:15:37.764Z,20.10
2019-05-22T12:16:37.783Z,18.80
2019-05-22T12:17:38.918Z,20.30
2019-05-22T12:18:37.741Z,20.40
2019-05-22T12:19:37.732Z,19.10
2019-05-22T12:20:37.783Z,21.00
2019-05-22T12:21:37.705Z,20.20
2019-05-22T12:22:37.738Z,19.80
2019-05-22T12:23:37.724Z,19.50
2019-05-22T12:24:37.889Z,22.90
2019-05-22T12:25:37.724Z,20.30
2019-05-22T12:26:37.659Z,56.90
2019-05-22T12:27:37.744Z,36.40
2019-05-22T12:28:37.723Z,29.30
2019-05-22T12:29:37.714Z,21.50
2019-05-22T12:30:37.670Z,19.70
2019-05-22T12:31:37.628Z,21.20
2019-05-22T12:32:37.659Z,22.60
2019-05-22T12:33:37.594Z,21.30
2019-05-22T12:34:37.627Z,19.30
2019-05-22T12:35:37.671Z,21.70
2019-05-22T12:36:37.589Z,20.70
2019-05-22T12:37:37.569Z,22.10
2019-05-22T12:38:37.605Z,20.00
2019-05-22T12:39:37.533Z,19.00
2019-05-22T12:40:37.523Z,18.10
2019-05-22T12:41:37.567Z,17.60
2019-05-22T12:42:37.556Z,21.00
2019-05-22T12:43:37.510Z,18.60
2019-05-22T12:44:37.490Z,19.30
2019-05-22T12:45:37.452Z,21.10
2019-05-22T12:46:37.912Z,20.90
2019-05-22T12:47:37.533Z,22.20
2019-05-22T12:48:37.410Z,19.40
2019-05-22T12:49:37.526Z,20.60
2019-05-22T12:50:37.404Z,18.10
2019-05-22T12:51:37.404Z,18.80
2019-05-22T12:52:37.375Z,18.50
2019-05-22T12:53:37.425Z,19.80
2019-05-22T12:54:46.962Z,19.70
2019-05-22T12:55:38.359Z,18.40
2019-05-22T12:56:37.328Z,22.20
2019-05-22T12:57:37.336Z,18.60
2019-05-22T12:58:37.317Z,21.10